Time;durP1;ratioP1;P1;durP2;ratioP2;P2;SDS_P1;SDS_P2;PMS_P1;PMS_P2;Temp;Humidity;BMP_temperature;BMP_pressure;BME280_temperature;BME280_humidity;BME280_pressure;Samples;Min_cycle;Max_cycle;Signal;HPM_P1;HPM_P2
2021/06/30 00:01:57;;;;;;;5.15;3.92;;;;;;;22.68;54.21;101772.63;5048768;28;20078;-66
2021/06/30 00:04:22;;;;;;;4.60;3.72;;;;;;;22.70;54.26;101775.94;5035228;28;20167;-66
2021/06/30 00:06:48;;;;;;;4.20;3.40;;;;;;;22.70;54.46;101775.94;5041324;28;20461;-66
2021/06/30 00:09:16;;;;;;;5.07;3.58;;;;;;;22.71;54.20;101773.06;5049891;28;20029;-67
2021/06/30 00:11:41;;;;;;;5.75;3.72;;;;;;;22.72;54.42;101771.22;5048130;28;20036;-66
2021/06/30 00:14:07;;;;;;;4.57;3.35;;;;;;;22.71;54.59;101769.56;5048606;28;20158;-66
2021/06/30 00:16:33;;;;;;;8.10;4.15;;;;;;;22.71;54.72;101774.91;5049856;28;20045;-66
2021/06/30 00:19:06;;;;;;;5.20;4.03;;;;;;;22.71;54.24;101774.91;5049786;28;20779;-66
2021/06/30 00:21:31;;;;;;;4.93;3.42;;;;;;;22.71;54.65;101773.06;5045799;28;20066;-66
2021/06/30 00:23:57;;;;;;;4.20;3.40;;;;;;;22.73;54.64;101774.75;5031341;28;20044;-66
2021/06/30 00:26:22;;;;;;;5.00;3.35;;;;;;;22.73;54.60;101774.75;5048683;28;20037;-66
2021/06/30 00:28:48;;;;;;;5.15;3.80;;;;;;;22.72;54.57;101771.22;5048324;28;20074;-66
2021/06/30 00:31:15;;;;;;;5.32;3.42;;;;;;;22.74;54.57;101771.03;5048505;28;20066;-66
2021/06/30 00:33:41;;;;;;;4.47;3.20;;;;;;;22.75;54.41;101767.34;5047922;28;20025;-69
2021/06/30 00:36:06;;;;;;;4.63;3.22;;;;;;;22.73;54.48;101762.19;5045323;28;20067;-65
2021/06/30 00:38:32;;;;;;;5.57;3.50;;;;;;;22.73;54.39;101764.03;5046616;28;20388;-66
2021/06/30 00:40:57;;;;;;;4.75;3.70;;;;;;;22.73;54.52;101759.53;5052676;28;20054;-66
2021/06/30 00:43:23;;;;;;;5.13;3.40;;;;;;;22.75;54.36;101756.66;5049422;28;20029;-66
2021/06/30 00:45:49;;;;;;;5.15;3.10;;;;;;;22.75;54.63;101762.81;5049701;28;20448;-66
2021/06/30 00:48:14;;;;;;;4.78;3.10;;;;;;;22.76;54.39;101766.31;5049462;28;20033;-66
2021/06/30 00:50:40;;;;;;;3.67;2.95;;;;;;;22.75;54.52;101759.31;5048819;28;20064;-69
2021/06/30 00:53:06;;;;;;;5.13;3.40;;;;;;;22.75;54.74;101760.16;5048605;28;20029;-65
2021/06/30 00:55:31;;;;;;;4.60;3.58;;;;;;;22.76;54.40;101763.66;5048624;28;20078;-68
2021/06/30 00:57:58;;;;;;;4.25;3.47;;;;;;;22.77;54.93;101767.97;5049372;28;20099;-66
2021/06/30 01:00:24;;;;;;;4.90;3.67;;;;;;;22.75;54.81;101764.66;5048215;28;21141;-66
2021/06/30 01:02:50;;;;;;;3.97;3.17;;;;;;;22.76;54.66;101763.66;5049365;28;20064;-67
2021/06/30 01:05:16;;;;;;;4.85;3.60;;;;;;;22.75;54.47;101762.81;5041021;28;20061;-66
2021/06/30 01:07:45;;;;;;;3.85;3.13;;;;;;;22.76;54.58;101769.81;5047306;28;20039;-71
2021/06/30 01:10:10;;;;;;;3.88;3.20;;;;;;;22.77;54.71;101774.16;5043269;28;20029;-66
2021/06/30 01:12:36;;;;;;;3.78;3.22;;;;;;;22.76;54.42;101763.66;5048813;28;20033;-66
2021/06/30 01:15:10;;;;;;;5.00;3.30;;;;;;;22.76;54.80;101766.31;5042750;28;20094;-66
2021/06/30 01:17:36;;;;;;;5.07;3.03;;;;;;;22.76;54.73;101764.47;5047030;28;20036;-65
2021/06/30 01:20:04;;;;;;;4.90;3.08;;;;;;;22.76;54.45;101760.97;5048680;28;20025;-65
2021/06/30 01:22:29;;;;;;;4.93;3.47;;;;;;;22.76;54.42;101771.66;5047190;28;20028;-67
2021/06/30 01:24:55;;;;;;;3.80;3.40;;;;;;;22.76;54.50;101763.66;5047002;28;20043;-66
2021/06/30 01:27:22;;;;;;;4.18;2.95;;;;;;;22.76;54.81;101758.28;5049109;28;20036;-66
2021/06/30 01:29:48;;;;;;;4.75;3.42;;;;;;;22.76;54.76;101761.81;5046928;28;20427;-68
2021/06/30 01:32:14;;;;;;;4.47;3.30;;;;;;;22.77;54.66;101767.97;5038545;28;20087;-67
2021/06/30 01:34:40;;;;;;;3.88;3.08;;;;;;;22.78;54.63;101774.97;5048499;28;20031;-66
2021/06/30 01:37:06;;;;;;;4.40;3.15;;;;;;;22.77;54.89;101774.16;5047925;28;20025;-66
2021/06/30 01:39:31;;;;;;;4.07;3.08;;;;;;;22.78;54.46;101773.13;5037073;28;20045;-66
2021/06/30 01:41:57;;;;;;;4.68;3.50;;;;;;;22.78;54.86;101777.66;5044142;28;20460;-67
2021/06/30 01:44:23;;;;;;;4.85;3.22;;;;;;;22.77;54.46;101768.78;5047752;28;20045;-66
2021/06/30 01:46:49;;;;;;;3.63;3.00;;;;;;;22.77;54.79;101768.78;5047705;28;20032;-66
2021/06/30 01:49:14;;;;;;;3.78;3.03;;;;;;;22.77;54.37;101779.50;5044828;28;20071;-66
2021/06/30 01:51:40;;;;;;;3.90;3.05;;;;;;;22.78;55.02;101778.47;5047211;28;20086;-65
2021/06/30 01:54:15;;;;;;;4.68;3.22;;;;;;;22.78;54.46;101777.66;5045670;28;20136;-66
2021/06/30 01:56:42;;;;;;;;;;;;;;;22.68;54.75;101773.44;5049057;28;20029;-66
2021/06/30 01:59:11;;;;;;;4.20;3.00;;;;;;;22.77;54.36;101776.00;5044222;28;19915;-66
2021/06/30 02:01:37;;;;;;;4.25;3.33;;;;;;;22.77;54.79;101776.00;5038912;28;20077;-66
2021/06/30 02:04:03;;;;;;;3.97;3.03;;;;;;;22.77;54.74;101773.31;5047619;28;20041;-65
2021/06/30 02:06:35;;;;;;;3.30;2.80;;;;;;;22.76;54.76;101774.34;5039177;28;20031;-66
2021/06/30 02:09:01;;;;;;;5.00;3.10;;;;;;;22.78;54.87;101775.81;5047688;28;20082;-66
2021/06/30 02:11:27;;;;;;;3.75;3.15;;;;;;;22.78;54.52;101781.16;5047725;28;20041;-65
2021/06/30 02:13:52;;;;;;;4.75;3.28;;;;;;;22.77;54.37;101771.47;5048468;28;20036;-65
2021/06/30 02:16:19;;;;;;;5.78;3.30;;;;;;;22.79;54.61;101779.31;5047425;28;20150;-66
2021/06/30 02:18:45;;;;;;;4.65;3.10;;;;;;;22.79;54.63;101776.63;5048030;28;20041;-67
2021/06/30 02:21:10;;;;;;;4.47;3.38;;;;;;;22.79;54.83;101771.28;5046986;28;20036;-66
2021/06/30 02:23:36;;;;;;;4.25;2.97;;;;;;;22.79;54.63;101774.78;5024949;28;20065;-66
2021/06/30 02:26:01;;;;;;;4.20;3.30;;;;;;;22.77;54.66;101773.31;5043702;28;20037;-66
2021/06/30 02:28:27;;;;;;;4.03;3.17;;;;;;;22.79;54.95;101764.06;5052291;28;20543;-65
2021/06/30 02:30:52;;;;;;;4.10;2.85;;;;;;;22.79;54.83;101768.59;5050782;28;20127;-66
2021/06/30 02:33:18;;;;;;;4.28;3.25;;;;;;;22.80;54.47;101772.94;5051754;28;20025;-66
2021/06/30 02:35:44;;;;;;;3.70;3.30;;;;;;;22.78;54.61;101767.78;5051975;28;20440;-71
2021/06/30 02:38:10;;;;;;;5.25;3.53;;;;;;;22.79;54.83;101758.72;5051666;28;20587;-66
2021/06/30 02:40:35;;;;;;;4.38;3.15;;;;;;;22.79;55.00;101764.06;5036147;28;20032;-66
2021/06/30 02:43:02;;;;;;;3.97;3.35;;;;;;;22.80;54.56;101764.91;5052160;28;20111;-67
2021/06/30 02:45:28;;;;;;;4.53;3.10;;;;;;;22.80;54.89;101764.91;5052104;28;20032;-66
2021/06/30 02:47:54;;;;;;;3.95;3.35;;;;;;;22.80;54.96;101764.91;5051372;28;20525;-66
2021/06/30 02:50:20;;;;;;;4.90;3.03;;;;;;;22.80;54.87;101770.25;5036492;28;20025;-66
2021/06/30 02:52:48;;;;;;;3.67;3.08;;;;;;;22.79;54.89;101771.28;5039563;28;20510;-70
2021/06/30 02:55:15;;;;;;;3.90;3.05;;;;;;;22.80;54.61;101765.72;5049164;28;20115;-66
2021/06/30 02:57:41;;;;;;;4.15;3.20;;;;;;;22.80;54.69;101767.56;5051223;28;20476;-66
2021/06/30 03:00:13;;;;;;;3.55;3.15;;;;;;;22.80;54.70;101770.25;5051703;28;20534;-67
2021/06/30 03:02:39;;;;;;;4.00;2.90;;;;;;;22.80;54.77;101773.75;5046821;28;20037;-66
2021/06/30 03:05:06;;;;;;;4.40;3.50;;;;;;;22.80;54.54;101767.56;5035405;28;20071;-66
2021/06/30 03:07:32;;;;;;;3.75;2.90;;;;;;;22.80;54.59;101768.41;5048637;28;20040;-65
2021/06/30 03:09:57;;;;;;;5.07;3.38;;;;;;;22.80;54.68;101771.09;5032078;28;20048;-66
2021/06/30 03:12:23;;;;;;;3.25;2.95;;;;;;;22.80;54.63;101771.09;5050161;28;20041;-66
2021/06/30 03:14:48;;;;;;;3.60;3.05;;;;;;;22.79;54.90;101772.09;5049130;28;20037;-66
2021/06/30 03:17:13;;;;;;;5.32;3.45;;;;;;;22.79;54.83;101769.44;5051228;28;20090;-66
2021/06/30 03:19:39;;;;;;;3.80;3.13;;;;;;;22.80;54.43;101775.59;5051121;28;20036;-66
2021/06/30 03:22:05;;;;;;;3.40;2.97;;;;;;;22.80;54.50;101775.59;5049943;28;20380;-67
2021/06/30 03:24:30;;;;;;;3.70;3.20;;;;;;;22.80;54.79;101770.25;5050968;28;20182;-66
2021/06/30 03:26:56;;;;;;;3.90;3.08;;;;;;;22.80;54.65;101772.94;5040499;28;20449;-66
2021/06/30 03:29:21;;;;;;;3.47;2.90;;;;;;;22.80;54.72;101771.09;5033164;28;20033;-66
2021/06/30 03:31:47;;;;;;;3.80;3.25;;;;;;;22.80;54.70;101763.06;5047041;28;20045;-66
2021/06/30 03:34:13;;;;;;;3.58;3.10;;;;;;;22.80;54.62;101764.91;5051024;28;20409;-68
2021/06/30 03:36:38;;;;;;;3.53;2.83;;;;;;;22.80;54.38;101770.25;5048968;28;20484;-66
2021/06/30 03:39:04;;;;;;;4.63;3.58;;;;;;;22.80;54.36;101770.25;5042710;28;20037;-66
2021/06/30 03:41:29;;;;;;;3.40;3.08;;;;;;;22.80;54.47;101767.56;5049195;28;20125;-67
2021/06/30 03:43:55;;;;;;;4.20;3.20;;;;;;;22.80;54.78;101771.09;5031801;28;20057;-67
2021/06/30 03:46:20;;;;;;;3.75;3.22;;;;;;;22.81;54.58;101766.56;5031523;28;20492;-66
2021/06/30 03:48:46;;;;;;;4.45;3.28;;;;;;;22.81;54.51;101774.56;5028737;28;20469;-65
2021/06/30 03:51:11;;;;;;;3.35;2.88;;;;;;;22.80;54.66;101770.25;5033231;28;20036;-66
2021/06/30 03:53:37;;;;;;;3.80;3.20;;;;;;;22.80;54.59;101775.59;5048876;28;20063;-66
2021/06/30 03:56:02;;;;;;;3.72;3.08;;;;;;;22.81;54.57;101777.25;5028897;28;20049;-65
2021/06/30 03:58:28;;;;;;;3.90;3.35;;;;;;;22.80;54.49;101768.41;5047141;28;20481;-67
2021/06/30 04:00:53;;;;;;;3.63;3.20;;;;;;;22.81;54.71;101778.09;5042862;28;20033;-66
2021/06/30 04:03:19;;;;;;;3.80;3.00;;;;;;;22.81;54.36;101771.91;5044688;28;20033;-66
2021/06/30 04:05:45;;;;;;;3.42;3.13;;;;;;;22.80;54.65;101783.63;5042587;28;20547;-66
2021/06/30 04:08:11;;;;;;;4.28;3.30;;;;;;;22.81;54.16;101785.28;5048835;28;20150;-66
2021/06/30 04:10:37;;;;;;;3.72;3.13;;;;;;;22.81;54.26;101787.97;5050173;28;20029;-66
2021/06/30 04:13:04;;;;;;;3.90;3.10;;;;;;;22.80;54.49;101781.78;5049374;28;20071;-67
2021/06/30 04:15:30;;;;;;;4.00;3.17;;;;;;;22.80;54.57;101778.28;5041487;28;20048;-66
2021/06/30 04:17:58;;;;;;;4.00;3.60;;;;;;;22.81;54.62;101774.56;5046821;28;20029;-66
2021/06/30 04:20:24;;;;;;;3.65;3.20;;;;;;;22.82;54.33;101776.22;5049852;28;20484;-66
2021/06/30 04:22:49;;;;;;;4.00;3.47;;;;;;;22.81;54.29;101777.25;5050503;28;20128;-66
2021/06/30 04:25:15;;;;;;;4.20;3.55;;;;;;;22.80;54.13;101760.38;5044509;28;20487;-68
2021/06/30 04:27:40;;;;;;;3.67;3.10;;;;;;;22.81;54.18;101769.22;5044675;28;20036;-67
2021/06/30 04:30:08;;;;;;;3.50;3.17;;;;;;;22.80;54.59;101771.09;5048192;28;20464;-65
2021/06/30 04:32:33;;;;;;;4.72;3.80;;;;;;;22.79;54.19;101774.78;5050253;28;20041;-66
2021/06/30 04:34:59;;;;;;;3.90;2.90;;;;;;;22.80;54.26;101775.59;5047898;28;20091;-68
2021/06/30 04:37:25;;;;;;;3.45;3.00;;;;;;;22.80;54.20;101778.28;5041990;28;20025;-66
2021/06/30 04:39:51;;;;;;;3.42;3.10;;;;;;;22.80;54.44;101771.09;5049073;28;20044;-67
2021/06/30 04:42:18;;;;;;;3.50;3.13;;;;;;;22.80;54.38;101781.78;5048970;28;20373;-66
2021/06/30 04:44:43;;;;;;;4.45;3.45;;;;;;;22.81;54.16;101785.28;5038456;28;20037;-66
2021/06/30 04:47:09;;;;;;;3.40;3.05;;;;;;;22.80;54.34;101776.44;5044349;28;20476;-66
2021/06/30 04:49:34;;;;;;;3.97;3.35;;;;;;;22.81;54.55;101771.91;5040897;28;20088;-66
2021/06/30 04:52:00;;;;;;;3.63;3.05;;;;;;;22.80;54.19;101773.75;5042667;28;20057;-67
2021/06/30 04:54:25;;;;;;;3.90;3.30;;;;;;;22.80;54.35;101770.25;5047539;28;20499;-66
2021/06/30 04:56:51;;;;;;;3.60;3.20;;;;;;;22.80;54.47;101768.41;5048985;28;20649;-66
2021/06/30 04:59:17;;;;;;;3.92;3.20;;;;;;;22.81;54.16;101771.91;5030942;28;20064;-66
2021/06/30 05:01:43;;;;;;;3.88;3.30;;;;;;;22.81;54.31;101777.25;5044966;28;20041;-67
2021/06/30 05:04:08;;;;;;;3.42;3.13;;;;;;;22.81;54.06;101771.91;5049158;28;20045;-66
2021/06/30 05:06:35;;;;;;;3.75;3.05;;;;;;;22.80;54.42;101779.09;5037379;28;20021;-67
2021/06/30 05:09:00;;;;;;;4.05;3.42;;;;;;;22.80;53.82;101773.75;5047521;28;20376;-66
2021/06/30 05:11:26;;;;;;;3.50;3.20;;;;;;;22.80;54.34;101781.78;5048583;28;20031;-66
2021/06/30 05:13:51;;;;;;;4.45;3.45;;;;;;;22.80;54.29;101779.09;5049383;28;20032;-65
2021/06/30 05:16:17;;;;;;;3.80;3.22;;;;;;;22.80;54.22;101772.94;5046842;28;20090;-66
2021/06/30 05:18:42;;;;;;;3.28;2.97;;;;;;;22.81;54.36;101782.59;5049489;28;20060;-66
2021/06/30 05:21:07;;;;;;;3.60;3.17;;;;;;;22.81;54.19;101779.94;5047462;28;20041;-67
2021/06/30 05:23:33;;;;;;;3.88;3.28;;;;;;;22.80;53.99;101775.59;5048448;28;20037;-67
2021/06/30 05:25:58;;;;;;;3.88;3.47;;;;;;;22.80;54.27;101786.31;5048283;28;20051;-66
2021/06/30 05:28:24;;;;;;;3.63;3.20;;;;;;;22.82;54.17;101784.25;5049112;28;20062;-66
2021/06/30 05:30:49;;;;;;;3.30;3.00;;;;;;;22.80;54.24;101787.13;5048761;28;20472;-65
2021/06/30 05:33:15;;;;;;;3.55;3.20;;;;;;;22.80;54.18;101791.66;5048276;28;20102;-67
2021/06/30 05:35:41;;;;;;;4.32;3.60;;;;;;;22.80;54.23;101792.47;5048829;28;20048;-66
2021/06/30 05:38:06;;;;;;;3.90;3.08;;;;;;;22.80;53.97;101792.47;5046370;28;20403;-66
2021/06/30 05:40:32;;;;;;;4.05;3.25;;;;;;;22.79;53.87;101788.16;5047101;28;20083;-66
2021/06/30 05:42:58;;;;;;;3.47;3.17;;;;;;;22.81;53.87;101793.31;5047548;28;20134;-68
2021/06/30 05:45:23;;;;;;;3.85;3.30;;;;;;;22.79;54.23;101792.69;5047670;28;20051;-67
2021/06/30 05:47:50;;;;;;;3.60;3.13;;;;;;;22.80;53.96;101783.63;5030761;28;20412;-66
2021/06/30 05:50:17;;;;;;;3.60;3.30;;;;;;;22.79;53.94;101785.47;5035591;28;20128;-67
2021/06/30 05:52:43;;;;;;;3.95;3.55;;;;;;;22.80;53.74;101786.31;5046000;28;20037;-66
2021/06/30 05:55:10;;;;;;;3.38;2.90;;;;;;;22.81;54.02;101787.97;5045331;28;20492;-66
2021/06/30 05:57:36;;;;;;;3.75;2.95;;;;;;;22.81;53.85;101794.13;5046295;28;20052;-66
2021/06/30 06:00:09;;;;;;;3.95;3.35;;;;;;;22.80;54.19;101797.00;5039247;28;20061;-66
2021/06/30 06:02:35;;;;;;;3.67;3.28;;;;;;;22.80;53.71;101802.34;5043910;28;20040;-66
2021/06/30 06:05:00;;;;;;;4.15;2.90;;;;;;;22.80;54.00;101797.84;5042355;28;20466;-66
2021/06/30 06:07:26;;;;;;;3.95;3.10;;;;;;;22.79;53.70;101792.69;5043270;28;20037;-66
2021/06/30 06:09:51;;;;;;;4.40;3.30;;;;;;;22.79;53.77;101798.84;5035869;28;20029;-66
2021/06/30 06:12:17;;;;;;;3.60;3.20;;;;;;;22.79;53.97;101790.84;5048350;28;20095;-66
2021/06/30 06:14:42;;;;;;;3.45;3.15;;;;;;;22.79;53.94;101788.16;5047954;28;20107;-66
2021/06/30 06:17:09;;;;;;;3.38;3.08;;;;;;;22.79;54.04;101782.81;5046480;28;20037;-67
2021/06/30 06:19:35;;;;;;;3.63;3.13;;;;;;;22.79;53.64;101785.47;5044476;28;20159;-66
2021/06/30 06:22:00;;;;;;;3.40;2.92;;;;;;;22.79;53.67;101790.00;5046982;28;20132;-68
2021/06/30 06:24:26;;;;;;;3.20;2.90;;;;;;;22.79;53.59;101785.47;5047709;28;20076;-68
2021/06/30 06:26:53;;;;;;;4.22;3.03;;;;;;;22.80;53.73;101797.00;5047561;28;20076;-66
2021/06/30 06:29:18;;;;;;;3.92;3.10;;;;;;;22.79;53.50;101798.84;5048309;28;20043;-65
2021/06/30 06:31:47;;;;;;;3.30;2.75;;;;;;;22.80;53.66;101794.34;5048130;28;20029;-65
2021/06/30 06:34:19;;;;;;;3.45;3.15;;;;;;;22.79;53.69;101792.69;5048019;28;20041;-66
2021/06/30 06:36:44;;;;;;;3.92;3.30;;;;;;;22.80;53.60;101797.00;5047224;28;20524;-67
2021/06/30 06:39:10;;;;;;;3.20;2.90;;;;;;;22.79;53.58;101793.50;5046623;28;20040;-68
2021/06/30 06:41:35;;;;;;;3.85;3.33;;;;;;;22.79;53.69;101790.84;5046541;28;20037;-66
2021/06/30 06:44:02;;;;;;;3.78;3.38;;;;;;;22.79;53.89;101788.16;5046191;28;20396;-70
2021/06/30 06:46:27;;;;;;;3.85;3.50;;;;;;;22.79;53.65;101790.00;5041445;28;20037;-67
2021/06/30 06:48:53;;;;;;;3.75;3.28;;;;;;;22.79;53.81;101792.69;5045654;28;20395;-66
2021/06/30 06:51:18;;;;;;;3.70;3.30;;;;;;;22.79;53.88;101790.84;5033862;28;20067;-63
2021/06/30 06:53:44;;;;;;;3.53;3.20;;;;;;;22.80;53.50;101797.00;5034206;28;20053;-63
2021/06/30 06:56:11;;;;;;;4.55;3.22;;;;;;;22.80;53.82;101797.00;5045802;28;20052;-63
2021/06/30 06:58:37;;;;;;;4.57;3.17;;;;;;;22.81;53.92;101788.78;5042573;28;20393;-65
2021/06/30 07:01:05;;;;;;;4.10;3.53;;;;;;;22.81;54.23;101785.28;5046065;28;20067;-66
2021/06/30 07:03:30;;;;;;;5.53;3.22;;;;;;;22.80;54.18;101787.13;5041336;28;20048;-65
2021/06/30 07:05:56;;;;;;;8.00;3.15;;;;;;;22.81;54.33;101786.09;5038056;28;20041;-66
2021/06/30 07:08:21;;;;;;;5.05;3.40;;;;;;;22.82;54.30;101790.47;5027322;28;20039;-66
2021/06/30 07:10:46;;;;;;;4.72;3.55;;;;;;;22.83;54.41;101785.94;5045408;28;20501;-64
2021/06/30 07:13:13;;;;;;;4.55;4.07;;;;;;;22.82;54.28;101792.28;5041073;28;20478;-63
2021/06/30 07:15:41;;;;;;;9.55;6.15;;;;;;;22.79;53.18;101790.00;5046509;28;20457;-69
2021/06/30 07:18:12;;;;;;;5.93;4.82;;;;;;;22.77;52.99;101792.88;5050231;28;20107;-66
2021/06/30 07:20:38;;;;;;;10.90;5.45;;;;;;;22.78;52.49;101796.38;5051569;28;20067;-65
2021/06/30 07:23:03;;;;;;;9.27;4.63;;;;;;;22.77;52.48;101795.56;5051393;28;20476;-68
2021/06/30 07:25:29;;;;;;;7.10;4.60;;;;;;;22.76;52.29;101798.41;5049741;28;20152;-68
2021/06/30 07:27:54;;;;;;;6.15;5.28;;;;;;;22.76;52.12;101795.75;5051097;28;20435;-67
2021/06/30 07:30:19;;;;;;;6.70;4.78;;;;;;;22.74;52.12;101798.63;5048986;28;20128;-67
2021/06/30 07:32:45;;;;;;;7.45;4.72;;;;;;;22.73;52.11;101798.81;5051050;28;20468;-67
2021/06/30 07:35:11;;;;;;;5.63;4.85;;;;;;;22.72;51.33;101803.31;5050488;28;20040;-68
2021/06/30 07:37:36;;;;;;;7.35;5.10;;;;;;;22.70;51.47;101808.84;5048316;28;20036;-67
2021/06/30 07:40:04;;;;;;;6.88;5.10;;;;;;;22.70;50.89;101806.19;5050547;28;20025;-67
2021/06/30 07:42:30;;;;;;;8.02;5.50;;;;;;;22.67;50.57;101803.06;5049362;28;20457;-67
2021/06/30 07:44:55;;;;;;;6.72;5.07;;;;;;;22.66;50.69;101794.22;5048838;28;20047;-68
2021/06/30 07:47:20;;;;;;;9.43;5.55;;;;;;;22.66;50.74;101794.22;5049722;28;20408;-67
2021/06/30 07:49:46;;;;;;;8.18;5.25;;;;;;;22.66;50.59;101796.06;5040859;28;20104;-67
2021/06/30 07:52:11;;;;;;;10.50;6.13;;;;;;;22.65;50.51;101792.56;5038604;28;20040;-67
2021/06/30 07:54:37;;;;;;;13.52;6.05;;;;;;;22.64;50.14;101793.59;5050124;28;20128;-67
2021/06/30 07:57:02;;;;;;;12.40;6.43;;;;;;;22.65;50.61;101792.56;5048994;28;20468;-67
2021/06/30 07:59:28;;;;;;;17.52;6.25;;;;;;;22.64;50.72;101790.91;5048349;28;20040;-64
2021/06/30 08:01:53;;;;;;;10.38;6.53;;;;;;;22.63;50.19;101799.97;5050233;28;20415;-67
2021/06/30 08:04:19;;;;;;;10.07;7.07;;;;;;;22.64;50.37;101792.75;5048424;28;20087;-67
2021/06/30 08:06:44;;;;;;;14.00;7.20;;;;;;;22.62;49.88;101795.63;5044556;28;20040;-67
2021/06/30 08:09:10;;;;;;;13.02;7.45;;;;;;;22.61;50.12;101791.31;5031446;28;20036;-67
2021/06/30 08:11:35;;;;;;;16.60;7.45;;;;;;;22.59;49.63;101793.34;5028702;28;20041;-65
2021/06/30 08:14:01;;;;;;;14.20;6.63;;;;;;;22.57;49.75;101792.72;5047337;28;20029;-65
2021/06/30 08:16:26;;;;;;;14.30;6.28;;;;;;;22.56;49.56;101799.06;5046904;28;20028;-68
2021/06/30 08:18:52;;;;;;;14.35;6.60;;;;;;;22.56;49.58;101795.56;5046628;28;20033;-69
2021/06/30 08:21:18;;;;;;;14.52;6.95;;;;;;;22.54;49.41;101790.41;5046331;28;20448;-71
2021/06/30 08:23:44;;;;;;;10.20;5.90;;;;;;;22.54;49.58;101798.44;5045952;28;20490;-71
2021/06/30 08:26:12;;;;;;;9.32;5.75;;;;;;;22.54;49.58;101805.63;5045293;28;20377;-68
2021/06/30 08:28:38;;;;;;;11.52;6.25;;;;;;;22.54;49.47;101801.09;5046373;28;20033;-67
2021/06/30 08:31:04;;;;;;;14.15;6.35;;;;;;;22.54;49.37;101789.59;5045799;28;20110;-67
2021/06/30 08:33:30;;;;;;;10.13;6.55;;;;;;;22.55;49.68;101785.88;5042692;28;20033;-68
2021/06/30 08:35:56;;;;;;;10.73;6.40;;;;;;;22.54;49.75;101786.91;5046511;28;20396;-68
2021/06/30 08:38:22;;;;;;;9.98;6.05;;;;;;;22.53;49.29;101785.25;5046590;28;20063;-68
2021/06/30 08:40:52;;;;;;;8.90;6.50;;;;;;;22.53;49.34;101782.59;5044527;28;20075;-68
2021/06/30 08:43:17;;;;;;;9.50;6.20;;;;;;;22.52;49.15;101789.78;5045996;28;20025;-67
2021/06/30 08:45:43;;;;;;;10.70;6.07;;;;;;;22.50;49.02;101781.13;5044682;28;20044;-67
2021/06/30 08:48:09;;;;;;;8.50;6.25;;;;;;;22.50;49.28;101782.97;5045873;28;20033;-67
2021/06/30 08:50:39;;;;;;;8.07;6.32;;;;;;;22.49;49.09;101782.16;5041585;28;20064;-67
2021/06/30 08:53:09;;;;;;;10.48;6.15;;;;;;;22.47;48.87;101784.19;5045439;28;20644;-67
2021/06/30 08:55:36;;;;;;;12.13;6.18;;;;;;;22.47;49.03;101792.22;5024994;28;20033;-68
2021/06/30 08:58:02;;;;;;;15.32;7.38;;;;;;;22.47;49.11;101788.72;5044842;28;20106;-66
2021/06/30 09:00:28;;;;;;;10.93;6.57;;;;;;;22.47;49.11;101800.22;5045335;28;20785;-69
2021/06/30 09:02:57;;;;;;;9.93;5.85;;;;;;;22.47;49.34;101789.53;5045441;28;20041;-68
2021/06/30 09:07:52;;;;;;;8.85;5.72;;;;;;;22.47;49.10;101792.22;5042753;28;20044;-67
2021/06/30 09:10:36;;;;;;;9.35;5.97;;;;;;;22.43;48.92;101790.94;5045071;28;20039;-69
2021/06/30 09:13:03;;;;;;;10.55;6.10;;;;;;;22.46;48.86;101790.56;5044823;28;20120;-67
2021/06/30 09:15:31;;;;;;;6.47;5.70;;;;;;;22.47;49.09;101784.19;5045674;28;20041;-67
2021/06/30 09:18:17;;;;;;;8.40;6.40;;;;;;;22.42;48.80;101783.94;5041100;28;20076;-66
2021/06/30 09:20:43;;;;;;;9.75;6.40;;;;;;;22.45;48.60;101788.91;5033500;28;20021;-66
2021/06/30 09:23:08;;;;;;;7.15;6.05;;;;;;;22.46;48.46;101789.72;5043936;28;20087;-67
2021/06/30 09:25:36;;;;;;;6.65;5.95;;;;;;;22.46;48.54;101790.56;5044949;28;20036;-65
2021/06/30 09:28:25;;;;;;;8.40;6.10;;;;;;;22.44;48.76;101794.44;5035681;28;20037;-66
2021/06/30 09:30:58;;;;;;;12.10;5.88;;;;;;;22.43;48.39;101790.94;5036738;28;20068;-68
2021/06/30 09:33:23;;;;;;;7.63;6.18;;;;;;;22.44;48.29;101797.94;5045354;28;20610;-66
2021/06/30 09:36:01;;;;;;;8.45;6.07;;;;;;;22.40;48.26;101788.63;5044216;28;20033;-68
2021/06/30 09:38:33;;;;;;;9.27;6.20;;;;;;;22.42;48.04;101795.47;5044546;28;20040;-67
2021/06/30 09:40:59;;;;;;;8.50;6.30;;;;;;;22.44;48.51;101797.13;5044988;28;20041;-68
2021/06/30 09:43:28;;;;;;;8.32;6.30;;;;;;;22.43;48.20;101793.63;5044819;28;20040;-67
2021/06/30 09:45:56;;;;;;;14.32;5.95;;;;;;;22.43;48.04;101796.28;5045439;28;20070;-68
2021/06/30 09:48:37;;;;;;;10.43;5.93;;;;;;;22.38;48.30;101791.50;5043720;28;20032;-65
2021/06/30 09:51:04;;;;;;;16.85;6.25;;;;;;;22.40;48.38;101800.16;5031647;28;20037;-63
2021/06/30 09:53:33;;;;;;;15.90;6.82;;;;;;;22.38;48.49;101794.16;5046893;28;20124;-63
2021/06/30 09:56:09;;;;;;;12.40;6.13;;;;;;;22.37;48.56;101789.03;5046328;28;20033;-63
2021/06/30 09:58:36;;;;;;;10.40;6.05;;;;;;;22.38;48.28;101786.16;5047377;28;20053;-63
2021/06/30 10:01:19;;;;;;;11.27;5.72;;;;;;;22.34;48.51;101789.41;5047592;28;20032;-63
2021/06/30 10:03:46;;;;;;;13.40;6.35;;;;;;;22.36;48.36;101784.69;5048135;28;20037;-63
2021/06/30 10:06:27;;;;;;;11.70;6.10;;;;;;;22.32;48.30;101794.13;5036661;28;20067;-63
2021/06/30 10:08:54;;;;;;;9.07;6.60;;;;;;;22.33;48.17;101777.06;5047866;28;20036;-63
2021/06/30 10:11:20;;;;;;;9.35;6.47;;;;;;;22.32;47.90;101778.09;5047553;28;20025;-63
2021/06/30 10:13:46;;;;;;;10.57;6.40;;;;;;;22.31;48.10;101784.44;5048553;28;20047;-63
2021/06/30 10:16:15;;;;;;;8.75;6.93;;;;;;;22.31;47.64;101787.13;5048462;28;20033;-63
2021/06/30 10:18:41;;;;;;;8.75;6.45;;;;;;;22.29;48.02;101778.47;5048372;28;20138;-63
2021/06/30 10:21:06;;;;;;;9.15;7.13;;;;;;;22.28;47.68;101782.16;5048597;28;20126;-63
2021/06/30 10:23:32;;;;;;;12.15;6.20;;;;;;;22.26;47.47;101778.88;5047920;28;20098;-63
2021/06/30 10:25:58;;;;;;;13.02;7.15;;;;;;;22.23;47.76;101782.72;5047749;28;20475;-63
2021/06/30 10:28:27;;;;;;;7.80;6.40;;;;;;;22.21;47.60;101776.75;5047979;28;20124;-63
2021/06/30 10:30:53;;;;;;;8.50;6.20;;;;;;;22.20;47.45;101784.94;5047000;28;20446;-63
2021/06/30 10:33:34;;;;;;;7.97;6.47;;;;;;;22.16;47.11;101781.00;5048275;28;20029;-63
2021/06/30 10:36:00;;;;;;;8.20;6.40;;;;;;;22.17;47.21;101780.00;5039534;28;20501;-63
2021/06/30 10:38:54;;;;;;;7.70;6.53;;;;;;;22.13;47.18;101781.41;5045300;28;20116;-63
2021/06/30 10:41:41;;;;;;;8.23;6.60;;;;;;;22.11;47.29;101786.94;5048188;28;20166;-63
2021/06/30 10:44:14;;;;;;;9.07;7.20;;;;;;;22.13;47.32;101776.88;5036440;28;20120;-63
2021/06/30 10:46:40;;;;;;;9.20;7.32;;;;;;;22.14;47.49;101778.53;5048474;28;20159;-63
2021/06/30 10:49:28;;;;;;;9.85;7.20;;;;;;;22.08;47.54;101782.78;5047438;28;20067;-63
2021/06/30 10:51:59;;;;;;;7.90;6.45;;;;;;;22.11;47.10;101781.59;5043079;28;20661;-63
2021/06/30 10:54:45;;;;;;;9.02;6.70;;;;;;;22.08;47.16;101781.94;5050916;28;20052;-62
2021/06/30 10:57:31;;;;;;;9.52;7.50;;;;;;;22.07;47.21;101775.78;5051451;28;20484;-63
2021/06/30 11:00:04;;;;;;;9.65;6.80;;;;;;;22.09;47.48;101779.13;5040264;28;20495;-63
2021/06/30 11:02:32;;;;;;;7.07;6.35;;;;;;;22.09;47.51;101784.47;5033377;28;20041;-63
2021/06/30 11:05:17;;;;;;;9.75;7.13;;;;;;;22.06;47.51;101781.31;5045931;28;20032;-63
2021/06/30 11:07:44;;;;;;;8.98;7.10;;;;;;;22.10;47.17;101780.75;5047324;28;20028;-62
2021/06/30 11:10:16;;;;;;;8.50;6.97;;;;;;;22.09;47.18;101788.94;5051393;28;20033;-63
2021/06/30 11:12:59;;;;;;;8.75;7.10;;;;;;;22.06;47.48;101784.81;5051619;28;20024;-63
2021/06/30 11:15:40;;;;;;;9.30;7.10;;;;;;;22.07;47.44;101789.13;5051837;28;20033;-63
2021/06/30 11:18:25;;;;;;;7.68;6.75;;;;;;;22.06;47.08;101778.63;5050996;28;20021;-63
2021/06/30 11:20:52;;;;;;;8.55;7.43;;;;;;;22.08;47.01;101780.09;5040735;28;20130;-62
2021/06/30 11:23:18;;;;;;;8.52;6.93;;;;;;;22.08;47.18;101782.78;5049997;28;20036;-63
2021/06/30 11:25:44;;;;;;;9.88;7.65;;;;;;;22.09;47.46;101795.16;5032843;28;20039;-63
2021/06/30 11:28:34;;;;;;;7.93;7.13;;;;;;;22.05;47.42;101791.16;5051095;28;20123;-63